createdAt,value
2023-05-14T00:01:03.434Z,17.40
2023-05-14T00:03:30.016Z,14.73
2023-05-14T00:05:56.944Z,17.03
2023-05-14T00:08:23.808Z,16.33
2023-05-14T00:10:50.287Z,15.47
2023-05-14T00:13:17.186Z,15.13
2023-05-14T00:15:43.746Z,16.00
2023-05-14T00:18:10.586Z,16.43
2023-05-14T00:20:37.247Z,15.83
2023-05-14T00:23:03.754Z,16.30
2023-05-14T00:25:30.644Z,17.77
2023-05-14T00:27:57.148Z,15.87
2023-05-14T00:30:24.125Z,17.17
2023-05-14T00:32:51.074Z,16.27
2023-05-14T00:35:17.594Z,16.07
2023-05-14T00:37:44.398Z,17.03
2023-05-14T00:40:11.740Z,15.97
2023-05-14T00:42:39.315Z,15.60
2023-05-14T00:45:06.830Z,15.00
2023-05-14T00:47:34.037Z,15.27
2023-05-14T00:50:01.684Z,15.27
2023-05-14T00:52:28.126Z,14.87
2023-05-14T00:54:55.190Z,19.20
2023-05-14T00:57:21.684Z,16.23
2023-05-14T00:59:48.618Z,15.70
2023-05-14T01:02:15.076Z,16.53
2023-05-14T01:04:42.315Z,15.70
2023-05-14T01:07:23.030Z,16.03
2023-05-14T01:10:21.282Z,15.47
2023-05-14T01:13:01.955Z,16.37
2023-05-14T01:15:31.710Z,16.03
2023-05-14T01:18:02.628Z,17.00
2023-05-14T01:20:29.377Z,16.97
2023-05-14T01:22:55.874Z,16.50
2023-05-14T01:25:22.358Z,16.90
2023-05-14T01:27:57.546Z,16.70
2023-05-14T01:30:24.369Z,16.27
2023-05-14T01:32:54.485Z,17.80
2023-05-14T01:35:27.569Z,16.00
2023-05-14T01:37:57.669Z,16.63
2023-05-14T01:40:25.174Z,17.10
2023-05-14T01:42:53.505Z,16.77
2023-05-14T01:45:23.868Z,17.73
2023-05-14T01:47:51.758Z,17.07
2023-05-14T01:50:18.810Z,15.93
2023-05-14T01:52:45.542Z,17.87
2023-05-14T01:55:11.983Z,17.23
2023-05-14T01:57:38.789Z,18.27
2023-05-14T02:00:06.011Z,16.20
2023-05-14T02:02:32.473Z,16.43
2023-05-14T02:04:59.340Z,17.87
2023-05-14T02:07:25.805Z,18.97
2023-05-14T02:09:52.661Z,17.50
2023-05-14T02:12:19.114Z,16.23
2023-05-14T02:14:45.577Z,17.07
2023-05-14T02:17:12.420Z,16.53
2023-05-14T02:19:38.838Z,16.47
2023-05-14T02:22:05.688Z,17.83
2023-05-14T02:24:32.146Z,17.20
2023-05-14T02:26:58.981Z,17.43
2023-05-14T02:29:25.454Z,16.13
2023-05-14T02:31:52.366Z,17.70
2023-05-14T02:34:19.003Z,17.60
2023-05-14T02:36:45.991Z,15.63
2023-05-14T02:39:12.753Z,17.20
2023-05-14T02:41:39.620Z,17.13
2023-05-14T02:44:06.130Z,15.93
2023-05-14T02:46:33.321Z,18.27
2023-05-14T02:49:00.166Z,17.33
2023-05-14T02:51:26.964Z,17.57
2023-05-14T02:53:53.437Z,18.13
2023-05-14T02:56:20.249Z,18.20
2023-05-14T02:58:46.722Z,17.93
2023-05-14T03:01:13.873Z,19.10
2023-05-14T03:03:40.643Z,20.13
2023-05-14T03:06:08.074Z,17.27
2023-05-14T03:08:34.532Z,17.67
2023-05-14T03:11:01.309Z,18.43
2023-05-14T03:13:28.082Z,19.93
2023-05-14T03:15:54.565Z,18.20
2023-05-14T03:18:21.567Z,17.77
2023-05-14T03:20:48.038Z,20.17
2023-05-14T03:23:15.509Z,19.13
2023-05-14T03:25:42.314Z,19.70
2023-05-14T03:28:09.146Z,23.97
2023-05-14T03:30:35.867Z,19.00
2023-05-14T03:33:02.785Z,19.70
2023-05-14T03:35:29.665Z,18.57
2023-05-14T03:37:56.391Z,19.37
2023-05-14T03:40:22.990Z,19.03
2023-05-14T03:42:49.970Z,19.07
2023-05-14T03:45:16.462Z,20.50
2023-05-14T03:47:43.303Z,20.57
2023-05-14T03:50:09.966Z,18.40
2023-05-14T03:52:36.763Z,18.60
2023-05-14T03:55:03.814Z,19.33
2023-05-14T03:57:30.592Z,20.93
2023-05-14T03:59:57.075Z,19.57
2023-05-14T04:02:24.392Z,19.57
2023-05-14T04:04:50.899Z,22.33
2023-05-14T04:07:17.706Z,19.93
2023-05-14T04:09:44.160Z,18.27
2023-05-14T04:12:10.961Z,17.73
2023-05-14T04:14:37.432Z,18.13
2023-05-14T04:17:04.468Z,17.43
2023-05-14T04:19:30.896Z,18.63
2023-05-14T04:21:57.337Z,18.17
2023-05-14T04:24:24.289Z,20.40
2023-05-14T04:26:50.744Z,20.73
2023-05-14T04:29:17.554Z,19.70
2023-05-14T04:31:44.570Z,22.03
2023-05-14T04:34:11.450Z,20.37
2023-05-14T04:36:37.894Z,22.10
2023-05-14T04:39:04.734Z,19.47
2023-05-14T04:41:31.537Z,20.23
2023-05-14T04:44:00.272Z,20.60
2023-05-14T04:46:27.181Z,18.30
2023-05-14T04:48:53.894Z,18.30
2023-05-14T04:51:20.676Z,19.00
2023-05-14T04:53:47.183Z,19.23
2023-05-14T04:56:14.096Z,18.97
2023-05-14T04:58:40.559Z,18.83
2023-05-14T05:01:07.037Z,19.00
2023-05-14T05:03:33.523Z,18.40
2023-05-14T05:06:00.477Z,16.17
2023-05-14T05:08:27.251Z,14.20
2023-05-14T05:10:53.694Z,14.47
2023-05-14T05:13:20.491Z,13.07
2023-05-14T05:15:47.549Z,12.97
2023-05-14T05:18:14.116Z,12.30
2023-05-14T05:20:40.928Z,12.70
2023-05-14T05:23:07.418Z,12.13
2023-05-14T05:25:34.376Z,10.93
2023-05-14T05:28:00.842Z,11.47
2023-05-14T05:30:27.687Z,11.47
2023-05-14T05:32:54.235Z,11.13
2023-05-14T05:35:21.136Z,11.13
2023-05-14T05:37:47.577Z,10.07
2023-05-14T05:40:14.531Z,10.97
2023-05-14T05:42:41.634Z,10.77
2023-05-14T05:45:09.227Z,11.40
2023-05-14T05:47:35.671Z,11.57
2023-05-14T05:50:02.209Z,12.07
2023-05-14T05:52:29.114Z,10.70
2023-05-14T05:54:55.572Z,12.30
2023-05-14T05:57:23.622Z,10.77
2023-05-14T05:59:51.555Z,11.27
2023-05-14T06:02:19.187Z,11.20
2023-05-14T06:04:45.787Z,10.83
2023-05-14T06:07:12.661Z,10.63
2023-05-14T06:09:39.504Z,11.00
2023-05-14T06:12:06.458Z,11.57
2023-05-14T06:14:33.372Z,10.87
2023-05-14T06:16:59.929Z,10.73
2023-05-14T06:19:26.894Z,11.13
2023-05-14T06:21:53.377Z,10.67
2023-05-14T06:24:20.265Z,10.80
2023-05-14T06:26:48.797Z,10.37
2023-05-14T06:29:15.589Z,10.70
2023-05-14T06:31:42.634Z,10.53
2023-05-14T06:34:09.097Z,11.30
2023-05-14T06:36:35.922Z,11.23
2023-05-14T06:39:02.399Z,12.10
2023-05-14T06:41:29.264Z,12.63
2023-05-14T06:43:55.692Z,11.90
2023-05-14T06:46:22.481Z,13.03
2023-05-14T06:48:49.097Z,13.47
2023-05-14T06:51:16.106Z,13.57
2023-05-14T06:53:42.594Z,13.33
2023-05-14T06:56:09.363Z,13.50
2023-05-14T06:58:35.833Z,11.57
2023-05-14T07:01:02.730Z,12.07
2023-05-14T07:03:29.537Z,12.40
2023-05-14T07:05:56.276Z,12.90
2023-05-14T07:08:23.057Z,14.57
2023-05-14T07:10:49.503Z,15.83
2023-05-14T07:13:16.312Z,15.03
2023-05-14T07:15:42.738Z,12.63
2023-05-14T07:18:09.496Z,12.27
2023-05-14T07:20:36.021Z,12.53
2023-05-14T07:23:02.487Z,11.83
2023-05-14T07:25:28.933Z,11.73
2023-05-14T07:27:55.823Z,12.07
2023-05-14T07:30:22.835Z,12.00
2023-05-14T07:32:49.991Z,15.50
2023-05-14T07:35:16.494Z,12.10
2023-05-14T07:37:43.335Z,11.73
2023-05-14T07:40:10.030Z,12.10
2023-05-14T07:42:37.539Z,12.37
2023-05-14T07:45:05.547Z,12.60
2023-05-14T07:47:32.996Z,13.07
2023-05-14T07:49:59.796Z,13.83
2023-05-14T07:52:26.606Z,13.93
2023-05-14T07:54:53.566Z,13.60
2023-05-14T07:57:20.283Z,14.53
2023-05-14T07:59:48.151Z,13.67
2023-05-14T08:02:15.061Z,14.30
2023-05-14T08:04:41.833Z,13.80
2023-05-14T08:07:09.149Z,12.67
2023-05-14T08:09:35.794Z,12.57
2023-05-14T08:12:02.360Z,11.10
2023-05-14T08:14:28.808Z,10.87
2023-05-14T08:16:55.273Z,10.47
2023-05-14T08:19:22.360Z,11.77
2023-05-14T08:21:49.213Z,10.63
2023-05-14T08:24:15.701Z,10.37
2023-05-14T08:26:42.166Z,9.67
2023-05-14T08:29:10.632Z,10.00
2023-05-14T08:31:37.732Z,10.73
2023-05-14T08:34:04.180Z,9.00
2023-05-14T08:36:30.673Z,10.07
2023-05-14T08:38:57.498Z,9.40
2023-05-14T08:41:24.435Z,10.53
2023-05-14T08:44:12.464Z,10.00
2023-05-14T08:46:40.089Z,8.30
2023-05-14T08:49:38.979Z,6.63
2023-05-14T08:52:06.018Z,6.53
2023-05-14T08:54:32.555Z,8.40
2023-05-14T08:56:59.292Z,7.07
2023-05-14T08:59:26.176Z,7.07
2023-05-14T09:01:54.427Z,6.60
2023-05-14T09:04:23.388Z,8.03
2023-05-14T09:06:52.254Z,6.73
2023-05-14T09:09:18.791Z,7.33
2023-05-14T09:11:50.242Z,8.80
2023-05-14T09:14:17.425Z,7.17
2023-05-14T09:16:49.410Z,8.33
2023-05-14T09:19:16.401Z,6.07
2023-05-14T09:21:45.209Z,7.47
2023-05-14T09:24:22.391Z,6.73
2023-05-14T09:26:58.244Z,7.23
2023-05-14T09:29:25.302Z,7.77
2023-05-14T09:31:52.349Z,8.47
2023-05-14T09:34:29.896Z,7.97
2023-05-14T09:37:01.646Z,7.93
2023-05-14T09:39:29.604Z,8.27
2023-05-14T09:41:56.555Z,8.13
2023-05-14T09:44:24.404Z,8.17
2023-05-14T09:46:51.663Z,8.47
2023-05-14T09:49:18.656Z,8.93
2023-05-14T09:51:45.187Z,9.20
2023-05-14T09:54:11.782Z,9.10
2023-05-14T09:56:38.555Z,8.30
2023-05-14T09:59:05.261Z,8.07
2023-05-14T10:01:33.174Z,8.07
2023-05-14T10:04:00.019Z,8.57
2023-05-14T10:06:30.558Z,7.70
2023-05-14T10:09:00.557Z,7.90
2023-05-14T10:11:32.505Z,7.10
2023-05-14T10:14:07.832Z,6.63
2023-05-14T10:16:37.414Z,6.47
2023-05-14T10:19:11.651Z,8.00
2023-05-14T10:21:40.533Z,6.07
2023-05-14T10:24:08.130Z,7.17
2023-05-14T10:26:37.778Z,6.37
2023-05-14T10:29:04.680Z,6.90
2023-05-14T10:31:54.256Z,6.93
2023-05-14T10:34:41.601Z,5.87
2023-05-14T10:37:14.038Z,6.87
2023-05-14T10:39:45.764Z,8.83
2023-05-14T10:42:16.155Z,7.43
2023-05-14T10:44:55.271Z,5.67
2023-05-14T10:47:22.305Z,6.30
2023-05-14T10:49:48.959Z,5.03
2023-05-14T10:52:19.450Z,4.53
2023-05-14T10:54:49.514Z,5.73
2023-05-14T10:57:18.433Z,4.57
2023-05-14T10:59:46.309Z,5.67
2023-05-14T11:02:22.625Z,6.97
2023-05-14T11:04:58.409Z,7.63
2023-05-14T11:07:30.381Z,8.70
2023-05-14T11:10:05.935Z,5.83
2023-05-14T11:12:37.345Z,7.60
2023-05-14T11:15:08.806Z,4.70
2023-05-14T11:17:36.671Z,5.03
2023-05-14T11:20:03.773Z,6.63
2023-05-14T11:22:30.239Z,5.27
2023-05-14T11:24:56.863Z,8.73
2023-05-14T11:27:23.516Z,5.07
2023-05-14T11:29:50.962Z,6.13
2023-05-14T11:32:18.343Z,5.30
2023-05-14T11:34:46.112Z,6.97
2023-05-14T11:37:14.479Z,4.53
2023-05-14T11:39:47.862Z,4.73
2023-05-14T11:42:14.665Z,5.90
2023-05-14T11:44:41.859Z,5.77
2023-05-14T11:47:08.363Z,5.33
2023-05-14T11:49:34.894Z,4.60
2023-05-14T11:52:02.897Z,5.17
2023-05-14T11:54:30.639Z,8.43
2023-05-14T11:56:58.089Z,5.60
2023-05-14T11:59:29.047Z,5.63
2023-05-14T12:01:55.819Z,5.43
2023-05-14T12:04:22.561Z,5.90
2023-05-14T12:06:50.667Z,5.77
2023-05-14T12:09:18.258Z,5.63
2023-05-14T12:11:45.855Z,5.37
2023-05-14T12:14:15.872Z,5.53
2023-05-14T12:16:44.596Z,4.73
2023-05-14T12:19:13.800Z,5.50
2023-05-14T12:21:42.602Z,4.00
2023-05-14T12:24:17.901Z,3.80
2023-05-14T12:26:46.012Z,6.00
2023-05-14T12:29:14.648Z,5.60
2023-05-14T12:31:50.158Z,6.63
2023-05-14T12:34:17.187Z,4.50
2023-05-14T12:36:43.797Z,4.43
2023-05-14T12:39:12.397Z,3.70
2023-05-14T12:41:38.854Z,4.07
2023-05-14T12:44:05.517Z,5.80
2023-05-14T12:46:33.443Z,6.83
2023-05-14T12:48:59.981Z,4.50
2023-05-14T12:51:26.739Z,4.97
2023-05-14T12:53:53.176Z,3.87
2023-05-14T12:56:20.039Z,4.10
2023-05-14T12:58:47.023Z,4.60
2023-05-14T13:01:13.876Z,4.10
2023-05-14T13:03:40.383Z,3.80
2023-05-14T13:06:07.659Z,3.33
2023-05-14T13:08:34.682Z,5.90
2023-05-14T13:11:01.163Z,4.87
2023-05-14T13:13:28.050Z,5.60
2023-05-14T13:15:54.556Z,4.33
2023-05-14T13:18:21.013Z,6.20
2023-05-14T13:20:48.384Z,5.40
2023-05-14T13:23:15.104Z,4.00
2023-05-14T13:25:41.556Z,6.40
2023-05-14T13:28:08.713Z,4.27
2023-05-14T13:30:35.193Z,78.37
2023-05-14T13:33:01.786Z,9.87
2023-05-14T13:35:28.349Z,10.97
2023-05-14T13:37:55.210Z,6.63
2023-05-14T13:40:21.681Z,4.63
2023-05-14T13:42:48.208Z,7.87
2023-05-14T13:45:14.681Z,5.90
2023-05-14T13:47:41.465Z,7.47
2023-05-14T13:50:08.586Z,5.97
2023-05-14T13:52:35.038Z,4.87
2023-05-14T13:55:01.546Z,5.33
2023-05-14T13:57:28.381Z,5.40
2023-05-14T13:59:54.830Z,4.67
2023-05-14T14:02:21.684Z,10.23
2023-05-14T14:04:48.237Z,5.37
2023-05-14T14:07:15.081Z,6.03
2023-05-14T14:09:41.576Z,5.17
2023-05-14T14:12:08.374Z,6.73
2023-05-14T14:14:35.243Z,5.43
2023-05-14T14:17:01.726Z,6.33
2023-05-14T14:19:28.173Z,4.00
2023-05-14T14:21:55.085Z,5.70
2023-05-14T14:24:21.570Z,5.27
2023-05-14T14:26:48.022Z,8.00
2023-05-14T14:29:14.681Z,6.30
2023-05-14T14:31:41.554Z,4.33
2023-05-14T14:34:08.436Z,7.03
2023-05-14T14:36:34.893Z,4.03
2023-05-14T14:39:01.659Z,4.70
2023-05-14T14:41:28.258Z,8.07
2023-05-14T14:43:54.715Z,5.53
2023-05-14T14:46:21.211Z,5.97
2023-05-14T14:48:48.076Z,4.33
2023-05-14T14:51:14.568Z,5.93
2023-05-14T14:53:41.013Z,5.63
2023-05-14T14:56:07.525Z,5.33
2023-05-14T14:58:34.013Z,7.30
2023-05-14T15:01:01.254Z,6.87
2023-05-14T15:03:28.096Z,7.97
2023-05-14T15:05:54.834Z,6.50
2023-05-14T15:08:25.494Z,5.87
2023-05-14T15:10:52.397Z,5.43
2023-05-14T15:13:19.083Z,5.57
2023-05-14T15:15:45.556Z,6.63
2023-05-14T15:18:12.031Z,6.13
2023-05-14T15:20:38.972Z,5.60
2023-05-14T15:23:05.930Z,5.13
2023-05-14T15:25:32.650Z,6.33
2023-05-14T15:27:59.115Z,6.10
2023-05-14T15:30:25.605Z,5.63
2023-05-14T15:32:52.160Z,5.33
2023-05-14T15:35:19.178Z,6.90
2023-05-14T15:37:46.048Z,6.77
2023-05-14T15:40:13.084Z,5.23
2023-05-14T15:42:41.609Z,6.00
2023-05-14T15:45:09.736Z,4.57
2023-05-14T15:47:36.410Z,5.60
2023-05-14T15:50:03.150Z,6.00
2023-05-14T15:52:29.782Z,5.60
2023-05-14T15:54:56.247Z,5.80
2023-05-14T15:57:23.135Z,6.60
2023-05-14T15:59:49.643Z,5.57
2023-05-14T16:02:16.122Z,6.60
2023-05-14T16:04:42.782Z,6.10
2023-05-14T16:07:09.923Z,6.00
2023-05-14T16:09:37.346Z,4.30
2023-05-14T16:12:05.131Z,4.90
2023-05-14T16:14:33.709Z,7.10
2023-05-14T16:17:00.481Z,5.40
2023-05-14T16:19:27.042Z,4.40
2023-05-14T16:21:53.663Z,5.70
2023-05-14T16:24:20.146Z,4.13
2023-05-14T16:26:46.768Z,4.50
2023-05-14T16:29:13.633Z,4.97
2023-05-14T16:31:40.103Z,4.70
2023-05-14T16:34:06.559Z,6.00
2023-05-14T16:36:33.048Z,4.27
2023-05-14T16:39:07.286Z,4.60
2023-05-14T16:41:35.294Z,5.27
2023-05-14T16:44:01.938Z,4.87
2023-05-14T16:46:28.935Z,4.30
2023-05-14T16:48:55.521Z,5.03
2023-05-14T16:51:22.110Z,4.10
2023-05-14T16:53:48.942Z,4.17
2023-05-14T16:56:15.456Z,4.13
2023-05-14T16:58:42.095Z,4.80
2023-05-14T17:01:09.783Z,4.80
2023-05-14T17:03:36.830Z,4.90
2023-05-14T17:06:03.579Z,4.77
2023-05-14T17:08:30.113Z,4.37
2023-05-14T17:10:56.710Z,6.27
2023-05-14T17:13:23.245Z,5.67
2023-05-14T17:15:50.104Z,5.73
2023-05-14T17:18:16.712Z,5.90
2023-05-14T17:20:43.214Z,5.37
2023-05-14T17:23:10.158Z,7.20
2023-05-14T17:25:36.605Z,4.83
2023-05-14T17:28:03.470Z,4.63
2023-05-14T17:30:29.900Z,6.00
2023-05-14T17:32:56.490Z,5.50
2023-05-14T17:35:23.500Z,5.73
2023-05-14T17:37:50.133Z,5.87
2023-05-14T17:40:16.855Z,4.50
2023-05-14T17:42:43.760Z,5.67
2023-05-14T17:45:10.577Z,6.87
2023-05-14T17:47:37.382Z,5.63
2023-05-14T17:50:04.594Z,4.77
2023-05-14T17:52:31.476Z,4.93
2023-05-14T17:54:57.940Z,6.80
2023-05-14T17:57:24.439Z,7.53
2023-05-14T17:59:51.123Z,7.93
2023-05-14T18:02:17.583Z,5.70
2023-05-14T18:04:45.420Z,4.97
2023-05-14T18:07:12.054Z,8.10
2023-05-14T18:09:38.869Z,5.07
2023-05-14T18:12:05.702Z,5.17
2023-05-14T18:14:32.467Z,5.23
2023-05-14T18:16:58.977Z,5.37
2023-05-14T18:19:25.826Z,5.50
2023-05-14T18:21:52.612Z,5.80
2023-05-14T18:24:19.407Z,7.47
2023-05-14T18:26:45.894Z,5.97
2023-05-14T18:29:12.351Z,5.70
2023-05-14T18:31:38.828Z,5.93
2023-05-14T18:34:05.700Z,5.97
2023-05-14T18:36:32.909Z,7.50
2023-05-14T18:38:59.353Z,5.47
2023-05-14T18:41:25.801Z,6.37
2023-05-14T18:43:52.458Z,6.83
2023-05-14T18:46:19.020Z,7.40
2023-05-14T18:48:46.092Z,5.50
2023-05-14T18:51:12.600Z,5.70
2023-05-14T18:53:39.419Z,7.20
2023-05-14T18:56:05.897Z,6.53
2023-05-14T18:58:32.365Z,5.77
2023-05-14T19:00:58.809Z,5.93
2023-05-14T19:03:25.613Z,6.90
2023-05-14T19:05:53.203Z,6.40
2023-05-14T19:08:19.701Z,5.50
2023-05-14T19:10:46.530Z,6.17
2023-05-14T19:13:13.335Z,7.23
2023-05-14T19:15:40.204Z,6.67
2023-05-14T19:18:06.788Z,9.23
2023-05-14T19:20:33.607Z,7.13
2023-05-14T19:23:00.077Z,7.60
2023-05-14T19:25:27.003Z,7.80
2023-05-14T19:27:53.747Z,8.40
2023-05-14T19:30:20.891Z,10.37
2023-05-14T19:32:47.746Z,8.40
2023-05-14T19:35:14.294Z,9.03
2023-05-14T19:37:41.190Z,10.53
2023-05-14T19:40:08.212Z,8.93
2023-05-14T19:42:34.649Z,10.70
2023-05-14T19:45:01.474Z,8.77
2023-05-14T19:47:28.016Z,12.40
2023-05-14T19:49:54.805Z,11.27
2023-05-14T19:52:21.270Z,9.73
2023-05-14T19:54:48.065Z,12.40
2023-05-14T19:57:14.839Z,10.30
2023-05-14T19:59:41.278Z,10.63
2023-05-14T20:02:08.223Z,10.30
2023-05-14T20:04:34.702Z,12.23
2023-05-14T20:07:01.522Z,11.30
2023-05-14T20:09:28.004Z,9.97
2023-05-14T20:11:54.616Z,10.93
2023-05-14T20:14:21.092Z,15.63
2023-05-14T20:16:47.927Z,12.53
2023-05-14T20:19:14.516Z,13.43
2023-05-14T20:21:41.270Z,11.43
2023-05-14T20:24:07.800Z,11.07
2023-05-14T20:26:35.106Z,15.67
2023-05-14T20:29:01.551Z,10.73
2023-05-14T20:31:28.029Z,10.83
2023-05-14T20:33:54.893Z,12.20
2023-05-14T20:36:21.391Z,12.10
2023-05-14T20:38:48.236Z,11.03
2023-05-14T20:41:14.699Z,14.67
2023-05-14T20:43:41.546Z,13.37
2023-05-14T20:46:08.060Z,14.63
2023-05-14T20:48:35.235Z,15.10
2023-05-14T20:51:02.002Z,17.23
2023-05-14T20:53:28.484Z,14.00
2023-05-14T20:55:55.280Z,14.27
2023-05-14T20:58:21.719Z,18.60
2023-05-14T21:00:48.426Z,17.20
2023-05-14T21:03:15.121Z,16.43
2023-05-14T21:05:42.185Z,14.87
2023-05-14T21:08:08.702Z,17.53
2023-05-14T21:10:35.614Z,20.03
2023-05-14T21:13:02.089Z,19.77
2023-05-14T21:15:28.994Z,22.47
2023-05-14T21:17:55.889Z,25.63
2023-05-14T21:20:22.392Z,21.13
2023-05-14T21:22:49.119Z,22.53
2023-05-14T21:25:15.662Z,25.53
2023-05-14T21:27:42.138Z,23.03
2023-05-14T21:30:09.140Z,28.40
2023-05-14T21:32:35.825Z,24.87
2023-05-14T21:35:02.671Z,23.67
2023-05-14T21:37:29.189Z,26.80
2023-05-14T21:39:55.639Z,27.03
2023-05-14T21:42:22.104Z,25.53
2023-05-14T21:44:48.997Z,27.40
2023-05-14T21:47:16.193Z,27.20
2023-05-14T21:49:42.960Z,26.17
2023-05-14T21:52:09.509Z,30.20
2023-05-14T21:54:36.138Z,32.87
2023-05-14T21:57:03.081Z,26.27
2023-05-14T21:59:29.547Z,29.03
2023-05-14T22:02:07.013Z,29.57
2023-05-14T22:04:34.424Z,26.00
2023-05-14T22:07:01.339Z,32.07
2023-05-14T22:09:27.772Z,31.60
2023-05-14T22:11:54.406Z,27.77
2023-05-14T22:14:21.249Z,32.20
2023-05-14T22:16:47.757Z,30.63
2023-05-14T22:19:16.653Z,30.43
2023-05-14T22:21:43.243Z,34.57
2023-05-14T22:24:10.083Z,30.57
2023-05-14T22:26:36.738Z,32.47
2023-05-14T22:29:03.191Z,33.33
2023-05-14T22:31:30.149Z,32.43
2023-05-14T22:33:56.995Z,32.93
2023-05-14T22:36:23.859Z,34.20
2023-05-14T22:38:50.321Z,35.00
2023-05-14T22:41:17.166Z,29.53
2023-05-14T22:43:43.634Z,32.43
2023-05-14T22:46:10.673Z,33.03
2023-05-14T22:48:37.228Z,33.97
2023-05-14T22:51:04.130Z,33.07
2023-05-14T22:53:30.593Z,36.63
2023-05-14T22:55:57.239Z,34.47
2023-05-14T22:58:24.146Z,33.70
2023-05-14T23:00:50.620Z,36.67
2023-05-14T23:03:17.353Z,37.87
2023-05-14T23:05:43.800Z,31.60
2023-05-14T23:08:11.216Z,32.40
2023-05-14T23:10:38.072Z,38.43
2023-05-14T23:13:04.530Z,31.77
2023-05-14T23:15:31.490Z,36.60
2023-05-14T23:17:58.164Z,35.33
2023-05-14T23:20:24.960Z,34.97
2023-05-14T23:22:51.509Z,35.47
2023-05-14T23:25:18.460Z,31.93
2023-05-14T23:27:44.937Z,37.07
2023-05-14T23:30:11.987Z,38.57
2023-05-14T23:32:38.851Z,34.17
2023-05-14T23:35:05.545Z,34.20
2023-05-14T23:37:32.432Z,38.20
2023-05-14T23:39:58.911Z,37.93
2023-05-14T23:42:25.749Z,35.50
2023-05-14T23:44:52.238Z,38.23
2023-05-14T23:47:19.218Z,39.70
2023-05-14T23:49:46.087Z,38.93
2023-05-14T23:52:12.538Z,37.47
2023-05-14T23:54:39.290Z,36.73
2023-05-14T23:57:06.070Z,37.80
2023-05-14T23:59:32.948Z,35.03
